Chicora, Pennsylvania
Current Conditions -  °F | °C
As of 3:15 PM on Sunday 25 Jan 2015 (Local Time) from KBTP Reporting Station
Overcast Overcast  
Wind Chill: 23°   Ceiling: 1100
Heat Index: 30°   Visibility: 1.2mi
Dew Point: 27°   Wind: 8mph
Humidity: 86%   Direction: 40°NE
Pressure: 29.79"   Gusts: NA
Location:  40.95°N, 79.74°W
Report Text: KBTP 252015Z AUTO 04007KT 1 1/4SM BKN011 OVC016 M01/M03 A2979 RMK AO1
Loading
Personal Weather Stations






























Interactive Weather Map New forecast layout! Learn more

10-Day Weather Forecast

Advertisements
Track Severe Weather on mobile